Stanton, TN (38069)

3:52 AM CDT on April 18, 2015 (GMT -0500)
Whitby Hill | | Change Station
CLOSE
Current Station
Personal Weather Station
Location: Oakland, TN
Elevation: 418 ft
Nearby Weather Stations

Elev 418 ft 35.22 °N, 89.50 °W | Updated 4 seconds ago

Mostly Cloudy
Mostly Cloudy
59.0 °F
Feels Like 59.0 °F
N
0.0
Wind Variable Wind from East
Gusts 0.0 mph

Today
High -- | Low -- °F
--% Chance of Precip.
Yesterday
High -- | Low -- °F
Precip. -- in
6:21 AM 7:32 PM
Waning Crescent, 0% visible
Pressure 30.00 in
Visibility 8.0 miles
Clouds Scattered Clouds 200 ft
Dew Point 58 °F
Humidity 98%
Rainfall 0.00 in
Snow Depth Not available.
UV 0 out of 12
Pollen 10.20 out of 12
Air Quality Not available.
Flu Activity Sporadic
SPECI KMKL 180828Z AUTO 18004KT 8SM SCT002 13/12 A3000 RMK AO2 T01280117

More Conditions Fewer Conditions

Pressure 30.00 in
Visibility 8.0 miles
Clouds Scattered Clouds 200 ft
Dew Point 58 °F
Humidity 98%
Rainfall 0.00 in
Snow Depth Not available.
UV 0 out of 12
Pollen 10.20 out of 12
Air Quality Not available.
Flu Activity Sporadic
SPECI KMKL 180828Z AUTO 18004KT 8SM SCT002 13/12 A3000 RMK AO2 T01280117

More Conditions Fewer Conditions

10-Day Weather Forecast

Almanac

Astronomy

Apr. 18, 2015 Rise Set
Actual Time
Civil Twilight
Nautical Twilight
Astronomical Twilight
Moon
Length of Visible Light
Length of Day
Tomorrow will be .
, % of the Moon is Illuminated

Today's Extremes

State Highs State Lows

Community

WunderPhotos

Upload Photos

1,814,345 photos uploaded!

WunderBlogs® & News

Nearby

Air Quality

  Air Quality AQ Index Pollutant
Not available.

Snow Depth

Station Depth Elevation

Earthquake Activity

City Distance Mag. Time & Date
Minimum magnitude displayed is 2.5.

Coastal Water Temperatures

Place Temperature

Stations

Nearby Weather Stations

Station Location Temp. Windchill Dew Point Humidity Wind Precip. Elev Updated Type